x

9441102 - Westport, Wa (wptw1) Weather Station

9:30pm - Sun 29th May 2016 All times are PDT. -7 hours from GMT.

  • Wind
    21mph, 24mph gusts
  • Sea Temp 58°f
  • Air Temp 54°f
  • Sea Pressure 1024.3mb
  • 9441102 - Westport, Wa
  • 9441102 - Westport, Wa

More Historic Weather Station data

Upgrade to MSW Pro to gain access to the past 30 days of data for over 8000 Wavebouys and Weather Stations around the globe.

Join Pro

Comparision Forecast

View Surf forecast
   
Sun 05/29 9:30pm 21 24 mph 1024.3mb 58f 54f
9:24pm 21 23 mph 1024.2mb 58f 54f
9:18pm 18 22 mph 1024.1mb 58f 53f
9:12pm 16 21 mph 1024.2mb 58f 54f
9:06pm 17 22 mph 1024.2mb 58f 54f
9:00pm 20 22 mph 1024.2mb 58f 54f
8:36pm 21 22 mph 1024.2mb 58f 54f
8:30pm 21 22 mph 1024.2mb 58f 54f
8:24pm 20 22 mph 1024.2mb 58f 55f
8:18pm 20 23 mph 1024.2mb 58f 55f
8:12pm 21 23 mph 1024.2mb 58f 55f
8:06pm 17 23 mph 1024.1mb 58f 55f
8:00pm 20 22 mph 1024.2mb 58f 55f
7:36pm  -  mph 1023.9mb 58f 55f
7:30pm  -  mph 1023.9mb 58f 55f
7:24pm  -  mph 1023.9mb 58f 55f
7:18pm  -  mph 1023.8mb 58f 55f
7:12pm  -  mph 1024mb 58f 55f
7:06pm  -  mph 1023.9mb 58f 55f
7:00pm  -  mph 1023.9mb 58f 55f
6:36pm  -  mph 1023.7mb 58f -
6:30pm  -  mph 1023.7mb 58f -
6:24pm  -  mph 1023.6mb 58f -
6:18pm  -  mph 1023.7mb 58f -
6:12pm  -  mph 1023.7mb 58f -
6:06pm  -  mph 1023.7mb 58f -
6:00pm  -  mph 1023.7mb 58f -
5:36pm  -  mph 1023.7mb 58f 55f
5:30pm  -  mph 1023.7mb 58f 56f
5:24pm  -  mph 1023.7mb 58f 56f
5:18pm  -  mph 1023.7mb 58f 55f
5:12pm  -  mph 1023.7mb 58f 55f
5:06pm  -  mph 1023.7mb 58f 55f
5:00pm  -  mph 1023.7mb 59f 55f
4:36pm  -  mph 1023.6mb 59f -
4:30pm  -  mph 1023.6mb 59f -
4:24pm  -  mph 1023.6mb 58f -
4:18pm  -  mph 1023.7mb 58f -
4:12pm  -  mph 1023.6mb 58f -
4:06pm  -  mph 1023.7mb 57f -
4:00pm  -  mph 1023.7mb 57f -
3:36pm  -  mph 1023.6mb 57f 56f
3:30pm  -  mph 1023.7mb 57f 56f
3:24pm  -  mph 1023.7mb 57f 56f
3:18pm  -  mph 1023.7mb 57f 56f
3:12pm  -  mph 1023.7mb 57f 56f
3:06pm  -  mph 1023.7mb 57f 55f
3:00pm  -  mph 1023.6mb 57f 56f
2:36pm 14 18 mph 1023.5mb 57f 56f
2:30pm 17 20 mph 1023.5mb 57f 56f
2:24pm 16 18 mph 1023.4mb 57f 55f
2:18pm 16 18 mph 1023.4mb 57f 55f
2:12pm 16 18 mph 1023.4mb 57f 55f
2:06pm 15 18 mph 1023.4mb 57f 55f
2:00pm 15 16 mph 1023.3mb 57f 55f
1:36pm 15 16 mph 1023.2mb 57f 55f
1:30pm 15 17 mph 1023.2mb 58f 55f
1:24pm 14 15 mph 1023.1mb 58f 55f
1:18pm 13 14 mph 1023.1mb 58f 55f
1:12pm 13 15 mph 1023.1mb 57f 55f
1:06pm 14 15 mph 1023mb 57f 55f
1:00pm 13 15 mph 1023mb 57f 55f
12:36pm 14 16 mph 1022.8mb 57f 55f
12:30pm 15 17 mph 1022.8mb 57f 55f
12:24pm 15 17 mph 1022.7mb 57f 55f
12:18pm 14 16 mph 1022.6mb 57f 55f
12:12pm 14 15 mph 1022.5mb 57f 55f
12:06pm 13 16 mph 1022.5mb 57f 55f
12:00pm 14 16 mph 1022.4mb 57f 55f
11:36am 14 15 mph 1022.1mb 57f 55f
11:30am 13 15 mph 1022.1mb 57f 55f
11:24am 15 18 mph 1022mb 57f 55f
11:18am 14 16 mph 1022mb 57f 55f
11:12am 10 14 mph 1022mb 57f 55f
11:06am 11 14 mph 1022mb 57f 55f
11:00am 10 11 mph 1021.9mb 57f 55f
10:36am 11 14 mph 1021.7mb 57f 55f
10:30am 11 14 mph 1021.8mb 57f 56f
10:24am 10 13 mph 1021.7mb 57f 56f
10:18am 10 11 mph 1021.7mb 57f 55f
10:12am 10 13 mph 1021.7mb 57f 55f
10:06am 10 14 mph 1021.6mb 57f 55f
10:00am 10 13 mph 1021.6mb 57f 56f
9:36am 11 14 mph 1021.3mb 56f 55f
9:30am 11 14 mph 1021.2mb 56f 55f
9:24am 11 13 mph 1021.2mb 56f 55f
9:18am 13 14 mph 1021.2mb 56f 55f
9:12am 10 13 mph 1021.1mb 56f 55f
9:06am 11 14 mph 1021mb 56f 55f
9:00am 11 14 mph 1021mb 56f 55f
8:36am 13 14 mph 1020.7mb 56f 54f
8:30am 13 14 mph 1020.6mb 56f 54f
8:24am 11 13 mph 1020.6mb 56f 54f
8:18am 13 14 mph 1020.5mb 56f 54f
8:12am 10 14 mph 1020.5mb 56f 53f
8:06am 13 15 mph 1020.5mb 56f 54f
8:00am 11 14 mph 1020.4mb 56f 54f
7:36am 9 10 mph 1020.2mb 56f 54f
7:30am 8 10 mph 1020.1mb 56f 53f
7:24am 8 9 mph 1020.1mb 56f 53f
7:18am 7 10 mph 1020mb 56f 53f
7:12am 9 10 mph 1019.9mb 56f 53f
7:06am 10 13 mph 1019.9mb 56f 53f
7:00am 10 13 mph 1019.8mb 56f 53f
6:36am 8 9 mph 1019.6mb 56f 53f
6:30am 8 10 mph 1019.5mb 56f 53f
6:24am 10 11 mph 1019.5mb 56f 53f
6:18am 7 9 mph 1019.4mb 56f 52f
6:12am 7 10 mph 1019.4mb 56f 52f
6:06am 10 13 mph 1019.4mb 56f 52f
6:00am 8 10 mph 1019.3mb 56f 52f
5:36am 8 9 mph 1019.1mb 56f 52f
5:30am 7 8 mph 1019.1mb 56f 52f
5:24am 8 9 mph 1019mb 56f 52f
5:18am 9 11 mph 1018.9mb 56f 51f
5:12am 10 13 mph 1018.9mb 56f 51f
5:06am 11 15 mph 1018.9mb 56f 51f
5:00am 14 17 mph 1018.8mb 56f 51f
4:36am 16 18 mph 1018.6mb 56f 53f
4:30am 6 8 mph 1018.6mb 56f 53f
4:24am 7 8 mph 1018.6mb 56f 53f
4:18am 7 8 mph 1018.5mb 56f 53f
4:12am 7 8 mph 1018.4mb 56f 53f
4:06am 7 8 mph 1018.4mb 56f 53f
4:00am 6 7 mph 1018.4mb 56f 53f
3:36am 9
mph
1018.3mb 56f 53f
3:30am 8 9 mph 1018.3mb 56f 53f
3:24am 7 8 mph 1018.4mb 56f 53f
3:18am 8 9 mph 1018.3mb 56f 53f
3:12am 8 9 mph 1018.3mb 56f 53f
3:06am 9 10 mph 1018.3mb 56f 53f
3:00am 8 10 mph 1018.3mb 56f 53f
2:36am 8 9 mph 1018.2mb 56f 53f
2:30am 8 9 mph 1018.2mb 56f 53f
2:24am 8 9 mph 1018.1mb 56f 53f
2:18am 8 9 mph 1018.2mb 56f 53f
2:12am 9 10 mph 1018.2mb 56f 53f
2:06am 9 10 mph 1018.2mb 56f 53f
2:00am 9 10 mph 1018.2mb 56f 53f
1:36am 10 11 mph 1018.3mb 56f 53f
1:30am 9 11 mph 1018.3mb 56f 53f
1:24am 9 11 mph 1018.2mb 56f 53f
1:18am 10 11 mph 1018.1mb 56f 53f
1:12am 10 11 mph 1018.1mb 56f 54f
1:06am 10 13 mph 1018.1mb 56f 54f
1:00am 11 14 mph 1018.1mb 56f 54f
12:36am 9 10 mph 1018.1mb 56f 54f
12:30am 8 9 mph 1018.1mb 56f 54f
12:24am 8 9 mph 1018.1mb 57f 54f
12:18am 7 8 mph 1018.1mb 57f 54f
12:12am 7 8 mph 1018.1mb 57f 54f
12:06am 7 8 mph 1018.1mb 57f 54f
12:00am 6 7 mph 1018.1mb 57f 54f
Sat 05/28 11:36pm 7 8 mph 1018.1mb 56f 54f
11:30pm 6 8 mph 1018.1mb 56f 54f
11:24pm 7 8 mph 1018.1mb 56f 54f
11:18pm 7 8 mph 1018.1mb 56f 54f
11:12pm 6 7 mph 1018.1mb 56f 54f
11:06pm 6 7 mph 1018.1mb 56f 54f
11:00pm 6 7 mph 1018.1mb 56f 54f
10:36pm 6 7 mph 1017.9mb 56f 54f
10:30pm 6 7 mph 1017.9mb 56f 54f
10:24pm 6 7 mph 1017.9mb 56f 54f
10:18pm 7 8 mph 1017.9mb 56f 54f
10:12pm 7 8 mph 1017.8mb 56f 54f
10:06pm 6 7 mph 1017.8mb 56f 54f
10:00pm 6 9 mph 1017.8mb 56f 53f
9:54pm 7 9 mph 1017.8mb 56f 53f
9:48pm 8 9 mph 1017.8mb 56f 53f
9:36pm 8 9 mph 1017.7mb 56f 53f
9:30pm 8 9 mph 1017.7mb 56f 53f
9:24pm 7 8 mph 1017.7mb 56f 53f
9:18pm 8 10 mph 1017.6mb 56f 53f
9:12pm 7 9 mph 1017.7mb 56f 53f
9:06pm 7 8 mph 1017.6mb 56f 53f
9:00pm 7 8 mph 1017.6mb 56f 54f
8:54pm 6 8 mph 1017.6mb 56f 54f
8:48pm 7 9 mph 1017.5mb 56f 54f
8:36pm 7 8 mph 1017.5mb 56f 54f
8:30pm 7 9 mph 1017.4mb 56f 54f
8:24pm 7 9 mph 1017.3mb 56f 54f
8:18pm 6 8 mph 1017.3mb 56f 54f
8:12pm 6 7 mph 1017.2mb 56f 54f
8:06pm 6 7 mph 1017.3mb 56f 54f
8:00pm 6 8 mph 1017.3mb 56f 54f
7:54pm 7 8 mph 1017.2mb 56f 54f
7:48pm 7 11 mph 1017.2mb 56f 54f
7:36pm  -  mph 1017.2mb 56f 54f
7:30pm  -  mph 1017.2mb 56f 54f
7:24pm  -  mph 1017.1mb 56f 54f
7:18pm  -  mph 1017.1mb 56f 54f
7:12pm  -  mph 1017.1mb 56f 54f
7:06pm  -  mph 1017.1mb 56f 54f
7:00pm  -  mph 1017mb 56f 53f
6:54pm  -  mph 1017mb 56f 53f
6:48pm  -  mph 1017mb 56f 53f
6:36pm  -  mph 1016.9mb 56f 53f
6:30pm  -  mph 1016.9mb 56f 53f
6:24pm  -  mph 1016.9mb 56f 53f
6:18pm  -  mph 1016.9mb 56f 53f
6:12pm  -  mph 1016.9mb 56f 53f
6:06pm  -  mph 1017mb 56f 53f
6:00pm  -  mph 1017mb 56f 53f
5:54pm  -  mph 1017mb 56f 53f
5:48pm  -  mph 1017mb 56f 53f
5:36pm  -  mph 1017.2mb 56f 53f
5:30pm  -  mph 1017.2mb 56f 53f
5:24pm  -  mph 1017.2mb 56f 53f
5:18pm  -  mph 1017.2mb 56f 53f
5:12pm  -  mph 1017.2mb 56f 53f
5:06pm  -  mph 1017.3mb 56f 53f
5:00pm  -  mph 1017.4mb 56f 53f
4:54pm  -  mph 1017.4mb 56f 53f
4:48pm  -  mph 1017.5mb 56f 53f
4:36pm  -  mph 1017.6mb 56f -
4:30pm  -  mph 1017.6mb 56f -
4:24pm  -  mph 1017.7mb 56f -
4:18pm  -  mph 1017.8mb 56f -
4:12pm  -  mph 1017.8mb 56f -
4:06pm  -  mph 1017.8mb 56f -
4:00pm  -  mph 1017.9mb 56f -
3:54pm  -  mph 1017.9mb 56f -
3:48pm  -  mph 1017.9mb 56f -
3:36pm  -  mph - 56f 53f
3:30pm  -  mph - 56f 53f
3:24pm  -  mph - 56f 53f
3:18pm  -  mph - 56f 53f
3:12pm  -  mph - 56f 53f
3:06pm  -  mph - 56f 53f
3:00pm  -  mph - 56f 53f
2:54pm  -  mph - 56f 53f
2:48pm  -  mph - 56f 53f
2:36pm 18 28 mph 1018mb 56f 54f
2:30pm 16 24 mph 1017.9mb 56f 54f
2:24pm 14 20 mph 1018mb 56f 53f
2:18pm 15 23 mph 1018mb 56f 53f
2:12pm 15 25 mph 1018mb 56f 53f
2:06pm 16 24 mph 1018mb 56f 53f
2:00pm 18 23 mph 1018mb 56f 53f
1:54pm 16 21 mph 1018mb 56f 53f
1:48pm 15 21 mph 1018mb 56f 53f
1:36pm 13 22 mph 1018.1mb 56f 53f
1:30pm 17 24 mph 1018.1mb 56f 53f
1:24pm 15 21 mph 1018.2mb 56f 53f
1:18pm 20 23 mph 1018.2mb 56f 53f
1:12pm 14 22 mph 1018.2mb 56f 53f
1:06pm 17 23 mph 1018.2mb 56f 53f
1:00pm 18 24 mph 1018.2mb 56f 53f
12:54pm 17 24 mph 1018.3mb 56f 53f
12:48pm 20 25 mph 1018.3mb 56f 53f
12:36pm 17 21 mph 1018.2mb 56f 53f
12:30pm 14 21 mph 1018.2mb 56f 53f
12:24pm 16 21 mph 1018.2mb 56f 54f
12:18pm 16 22 mph 1018.2mb 56f 54f
12:12pm 18 22 mph 1018.2mb 56f 53f
12:06pm 18 23 mph 1018.2mb 56f 54f
12:00pm 17 22 mph 1018.2mb 56f 53f
11:54am 15 22 mph 1018.1mb 56f 53f
11:48am 16 24 mph 1018.2mb 56f 53f
11:36am 16 22 mph 1018.2mb 56f 53f
11:30am 15 20 mph 1018.2mb 56f 53f
11:24am 16 23 mph 1018.2mb 56f 53f
11:18am 17 23 mph 1018.3mb 56f 53f
11:12am 15 23 mph 1018.2mb 56f 53f
11:06am 14 22 mph 1018.2mb 56f 53f
11:00am 16 22 mph 1018.2mb 56f 53f
10:54am 17 23 mph 1018.2mb 56f 53f
10:48am 14 23 mph 1018.2mb 56f 53f
10:36am 17 22 mph 1018.2mb 56f 52f
10:30am 17 24 mph 1018.3mb 56f 52f
10:24am 18 23 mph 1018.3mb 56f 52f
10:18am 20 23 mph 1018.2mb 56f 52f
10:12am 16 23 mph 1018.3mb 56f 52f
10:06am 20 26 mph 1018.3mb 56f 52f
10:00am 17 22 mph 1018.3mb 56f 52f
9:54am 18 24 mph 1018.3mb 56f 53f
9:48am 13 22 mph 1018.3mb 56f 53f
9:36am 14 18 mph 1018.4mb 56f 53f
9:30am 15 18 mph 1018.4mb 56f 53f
9:24am 13 21 mph 1018.4mb 56f 53f
9:18am 13 17 mph 1018.4mb 56f 53f
9:12am 14 18 mph 1018.5mb 56f 52f
9:06am 15 23 mph 1018.5mb 56f 53f
9:00am 17 22 mph 1018.4mb 56f 53f
8:54am 14 20 mph 1018.3mb 56f 53f
8:48am 14 20 mph 1018.3mb 56f 53f
8:36am 16 20 mph 1018.2mb 56f 53f
8:30am 15 21 mph 1018.2mb 56f 53f
8:24am 16 21 mph 1018.3mb 56f 53f
8:18am 14 20 mph 1018.3mb 56f 53f
8:12am 17 22 mph 1018.3mb 56f 53f
8:06am 14 17 mph 1018.3mb 56f 53f
8:00am 15 20 mph 1018.2mb 55f 53f
7:54am 16 20 mph 1018.2mb 55f 53f
7:48am 13 20 mph 1018.3mb 55f 52f
7:36am 15 20 mph 1018.3mb 55f 52f
7:30am 17 22 mph 1018.3mb 55f 52f
7:24am 17 23 mph 1018.3mb 55f 52f
7:18am 18 23 mph 1018.3mb 55f 52f
7:12am 18 23 mph 1018.4mb 55f 52f
7:06am 20 24 mph 1018.4mb 55f 52f
7:00am 20 26 mph 1018.4mb 55f 53f
6:54am 16 20 mph 1018.4mb 55f 53f
6:48am 16 20 mph 1018.4mb 55f 53f
6:36am 16 22 mph 1018.4mb 55f 53f
6:30am 16 21 mph 1018.5mb 55f 53f
6:24am 14 20 mph 1018.4mb 55f 53f
6:18am 14 20 mph 1018.4mb 55f 53f
6:12am 14 18 mph 1018.4mb 55f 53f
6:06am 14 17 mph 1018.5mb 55f 52f
6:00am 14 18 mph 1018.5mb 55f 52f
5:54am 10 15 mph 1018.5mb 55f 52f
5:48am 10 13 mph 1018.6mb 55f 52f
5:36am 13 18 mph 1018.6mb 55f 52f
5:30am 16 20 mph 1018.7mb 55f 52f
5:24am 15 20 mph 1018.7mb 55f 52f
5:18am 16 20 mph 1018.7mb 56f 53f
5:12am 13 16 mph 1018.7mb 56f 52f
5:06am 13 15 mph 1018.8mb 56f 52f
5:00am 14 17 mph 1018.7mb 56f 52f
4:54am 14 18 mph 1018.8mb 56f 52f
4:48am 15 18 mph 1018.9mb 56f 52f
4:36am 20 22 mph 1018.9mb 56f 52f
4:30am 16 24 mph 1018.8mb 56f 52f
4:24am 15 20 mph 1018.8mb 56f 52f
4:18am 18 21 mph 1018.8mb 56f 52f
4:12am 14 18 mph 1018.8mb 56f 52f
4:06am 11 15 mph 1018.9mb 56f 51f
4:00am 14 18 mph 1018.9mb 56f 51f
3:54am 14 18 mph 1018.9mb 56f 51f
3:48am 11 16 mph 1019mb 56f 51f
3:36am 14 17 mph 1019.1mb 56f 51f
3:30am 11 17 mph 1019.1mb 56f 51f
3:24am 13 16 mph 1019.2mb 56f 51f
3:18am 11 17 mph 1019.3mb 56f 51f
3:12am 14 17 mph 1019.4mb 56f 51f
3:06am 10 16 mph 1019.5mb 56f 51f
3:00am 11 15 mph 1019.6mb 57f 51f
2:54am 13 17 mph 1019.7mb 57f 51f
2:48am 10 17 mph 1019.7mb 56f 51f
2:36am 11 15 mph 1019.8mb 56f 51f
2:30am 11 16 mph 1019.8mb 56f 51f
2:24am 13 16 mph 1019.8mb 56f 52f
2:18am 13 18 mph 1019.9mb 56f 52f
2:12am 15 18 mph 1020.1mb 56f 53f
2:06am 13 15 mph 1020.1mb 56f 53f
2:00am 11 15 mph 1020.2mb 56f 53f
1:54am 11 15 mph 1020.3mb 56f 53f
1:48am 13 15 mph 1020.4mb 56f 53f
1:36am 10 14 mph 1020.6mb 56f 53f
1:30am 13 15 mph 1020.6mb 56f 53f
1:24am 11 14 mph 1020.7mb 56f 53f
1:18am 8 14 mph 1020.7mb 56f 53f
1:12am 8 13 mph 1020.7mb 56f 53f
1:06am 10 13 mph 1020.8mb 56f 53f
1:00am 9 11 mph 1020.9mb 56f 53f
12:54am 8 10 mph 1020.9mb 56f 53f
12:48am 9 11 mph 1020.9mb 56f 53f
12:36am 8 11 mph 1021.1mb 56f 53f
12:30am 9 13 mph 1021.2mb 57f 53f
12:24am 9 13 mph 1021.2mb 57f 53f
12:18am 11 13 mph 1021.3mb 57f 53f
12:12am 11 13 mph 1021.3mb 57f 53f
12:06am 11 14 mph 1021.4mb 57f 53f
12:00am 10 11 mph 1021.4mb 57f 53f
Fri 05/27 11:54pm 9 11 mph 1021.4mb 57f 53f
11:48pm 9 13 mph 1021.4mb 57f 53f
11:36pm 10 13 mph 1021.4mb 57f 53f
11:30pm 9 10 mph 1021.5mb 57f 53f
11:24pm 8 10 mph 1021.6mb 57f 53f
11:18pm 8 10 mph 1021.6mb 57f 53f
11:12pm 9 10 mph 1021.6mb 57f 53f
11:06pm 6 7 mph 1021.6mb 57f 53f
11:00pm 6 8 mph 1021.6mb 57f 53f
10:54pm 7 8 mph 1021.6mb 57f 53f
10:48pm 7 11 mph 1021.7mb 57f 53f
10:36pm 8 9 mph 1021.8mb 57f 53f
10:30pm 7 8 mph 1021.8mb 57f 53f
10:24pm 8 9 mph 1021.8mb 57f 53f
10:18pm 6 9 mph 1021.8mb 57f 53f
10:12pm 7 8 mph 1021.8mb 57f 53f
10:06pm 7 8 mph 1021.8mb 57f 53f
10:00pm 8 9 mph 1021.8mb 57f 53f
9:54pm 8 9 mph 1021.8mb 57f 53f
9:48pm 8 9 mph 1021.8mb 57f 53f
9:36pm 8 10 mph 1021.8mb 57f 53f
9:30pm 7 9 mph 1021.8mb 57f 53f
9:24pm 8 9 mph 1021.9mb 57f 53f
9:18pm 9 10 mph 1021.8mb 57f 53f
9:12pm 9 10 mph 1021.8mb 57f 53f
9:06pm 10 11 mph 1021.8mb 57f 53f
9:00pm 9 10 mph 1021.8mb 57f 53f
8:54pm 9 11 mph 1021.9mb 57f 53f
8:48pm 9 10 mph 1021.8mb 57f 53f
8:36pm 10 11 mph 1021.8mb 56f 53f
8:30pm 10 13 mph 1021.8mb 56f 53f
8:24pm 9 10 mph 1021.9mb 56f 53f
8:18pm 9 14 mph 1021.9mb 56f 53f
8:12pm 10 13 mph 1021.9mb 56f 53f
8:06pm 11 14 mph 1021.9mb 56f 53f
8:00pm 10 11 mph 1021.9mb 56f 53f
7:54pm 10 13 mph 1022mb 56f 53f
7:48pm 8 10 mph 1022mb 55f 53f
7:36pm 8 10 mph 1022mb - -
7:30pm 9 11 mph 1022mb - -
7:24pm 9 10 mph 1022.1mb - -
7:18pm 9 11 mph 1022.1mb - -
7:12pm 10 11 mph 1022.1mb - -
7:06pm 8 10 mph 1022.2mb - -
7:00pm 10 11 mph 1022.3mb - -
6:54pm 9 10 mph 1022.2mb - -
6:48pm 10 13 mph 1022.3mb - -
6:36pm  -  mph 1022.3mb - 53f
6:30pm  -  mph 1022.3mb - 53f
6:24pm  -  mph 1022.3mb - 53f
6:18pm  -  mph 1022.3mb - 53f
6:12pm  -  mph 1022.4mb - 53f
6:06pm  -  mph 1022.4mb - 53f
6:00pm  -  mph 1022.3mb - 53f
5:54pm  -  mph 1022.4mb - 53f
5:48pm  -  mph 1022.4mb - 53f
4:36pm  -  mph 1022.7mb 56f 53f
4:30pm  -  mph 1022.8mb 56f 53f
4:24pm  -  mph 1022.8mb 56f 53f
4:18pm  -  mph 1022.8mb 56f 53f
4:12pm  -  mph 1022.8mb 56f 53f
4:06pm  -  mph 1022.9mb 56f 53f
4:00pm  -  mph 1022.9mb 56f 53f
3:54pm  -  mph 1023mb 56f 53f
3:48pm  -  mph 1023.1mb 56f 53f
3:36pm 9 11 mph - 56f 53f
3:30pm 9 11 mph - 56f 53f
3:24pm 8 10 mph - 56f 52f
3:18pm 9 10 mph - 56f 52f
3:12pm 8 10 mph - 56f 53f
3:06pm 8 10 mph - 56f 52f
3:00pm 8 10 mph - 56f 52f
2:54pm 8 10 mph - 56f 53f
2:48pm 8 10 mph - 56f 53f
2:36pm 7 9 mph 1023.1mb - -
2:30pm 8 9 mph 1023.1mb - -
2:24pm 8 9 mph 1023mb - -
2:18pm 8 9 mph 1023mb - -
2:12pm 8 11 mph 1023mb - -
2:06pm 9 11 mph 1023mb - -
2:00pm 9 10 mph 1023mb - -
1:54pm 9 10 mph 1023mb - -
1:48pm 8 10 mph 1023mb - -
1:36pm 9 10 mph 1023.1mb 56f 52f
1:30pm 10
mph
1023.1mb 56f 52f
1:24pm 10 14 mph 1023mb 56f 52f
1:18pm 13 15 mph 1023.1mb 57f 52f
1:12pm 13 15 mph 1023mb 57f 53f
1:06pm 11 13 mph 1023.1mb 57f 52f
1:00pm 11 16 mph 1023.1mb 57f 52f
12:54pm 14 17 mph 1023.1mb 57f 51f
12:48pm 15 17 mph 1023.1mb 57f 51f
12:36pm 17 20 mph 1023.1mb 56f 51f
12:30pm 18 20 mph 1023.1mb 56f 51f
12:24pm 14 16 mph 1023.1mb 56f 52f
12:18pm 14 18 mph 1023.1mb 56f 52f
12:12pm 11 14 mph 1023mb 56f 52f
12:06pm 10 11 mph 1023.1mb 56f 51f
12:00pm 9 10 mph 1023.1mb 56f 52f
11:54am 8 13 mph 1023mb 56f 52f
11:48am 9 11 mph 1023mb 56f 51f
11:36am 8 11 mph 1023mb 56f 51f
11:30am 9 11 mph 1022.9mb 56f 51f
11:24am 8 10 mph 1022.8mb 56f 51f
11:18am 8 11 mph 1022.8mb 56f 51f
11:12am 10 13 mph 1022.8mb 56f 51f
11:06am 13 15 mph 1022.8mb 56f 51f
11:00am 14 15 mph 1022.7mb 56f 51f
10:54am 14 16 mph 1022.7mb 56f 51f
10:48am 13 15 mph 1022.7mb 56f 52f
10:36am 9 11 mph 1022.8mb 56f 52f
10:30am 9 11 mph 1022.7mb 56f 53f
10:24am 10 13 mph 1022.7mb 56f 53f
10:18am 9 11 mph 1022.7mb 56f 53f
10:12am 8 9 mph 1022.6mb 56f 54f
10:06am 9 10 mph 1022.7mb 56f 55f
10:00am 8 9 mph 1022.7mb 56f 55f
9:54am 8 10 mph 1022.7mb 56f 55f
9:48am 8 9 mph 1022.7mb 56f 55f
9:36am 7 8 mph 1022.7mb 56f 55f
9:30am 6 8 mph 1022.7mb 56f 54f
9:24am 6 10 mph 1022.6mb 56f 54f
9:18am 8 11 mph 1022.5mb 56f 53f
9:12am 10 14 mph 1022.5mb 56f 52f
9:06am 13 18 mph 1022.5mb 56f 52f
9:00am 18 22 mph 1022.6mb 56f 52f
8:54am 17 21 mph 1022.6mb 56f 52f
8:48am 16 20 mph 1022.6mb 56f 52f
8:36am 11 15 mph 1022.5mb 56f 52f
8:30am 14 17 mph 1022.5mb 56f 52f
8:24am 14 17 mph 1022.5mb 56f 52f
8:18am 16 17 mph 1022.5mb 56f 52f
8:12am 13 15 mph 1022.6mb 56f 51f
8:06am 8 11 mph 1022.6mb 56f 51f
8:00am 8 10 mph 1022.6mb 56f 51f
7:54am 9 10 mph 1022.6mb 56f 51f
7:48am 8 10 mph 1022.6mb 56f 51f
7:36am 10
mph
1022.5mb 56f 51f
7:30am 8 9 mph 1022.5mb 56f 50f
7:24am 8 11 mph 1022.5mb 56f 50f
7:18am 8 11 mph 1022.4mb 56f 50f
7:12am 11 16 mph 1022.5mb 56f 50f
7:06am 15 23 mph 1022.4mb 56f 50f
7:00am 23 25 mph 1022.3mb 55f 52f
6:54am 15 16 mph 1022.3mb 55f 52f
6:48am 13 16 mph 1022.3mb 55f 52f
6:36am 9 13 mph 1022.2mb 55f 51f
6:30am 6 7 mph 1022.2mb 55f 51f
6:24am 7 8 mph 1022.1mb 55f 51f
6:18am 7 8 mph 1022.1mb 55f 51f
6:12am 6 7 mph 1022mb 55f 50f
6:06am 6 8 mph 1022mb 55f 50f
6:00am 6 7 mph 1022.1mb 55f 50f
5:36am 8 11 mph 1022.1mb 55f 50f
5:30am 11 14 mph 1022.1mb 55f 50f
5:24am 11 17 mph 1022.1mb 55f 50f
5:18am 14 16 mph 1022mb 55f 51f
5:12am 9 13 mph 1022mb 55f 51f
5:06am 10 11 mph 1022.1mb 55f 51f
5:00am 9 11 mph 1022mb 55f 51f
4:54am 8 9 mph 1022mb 55f 51f
4:48am 7 9 mph 1022mb 55f 50f
4:36am 8
mph
1022mb 55f 51f
4:30am 7 9 mph 1022mb 55f 50f
4:24am 9 10 mph 1021.9mb 55f 50f
4:18am 7 8 mph 1021.9mb 55f 50f
4:12am 7 10 mph 1022.1mb 55f 49f
4:06am 10 14 mph 1022.2mb 55f 49f
4:00am 13 15 mph 1022.2mb 55f 49f
3:54am 16 24 mph 1022.3mb 55f 50f
3:48am 23 29 mph 1022.3mb 55f 52f
3:36am 16 17 mph 1022.2mb 55f 52f
3:30am 16 18 mph 1022.2mb 56f 52f
3:24am 16 18 mph 1022.2mb 56f 52f
3:18am 17 18 mph 1022.3mb 56f 52f
3:12am 16
mph
1022.3mb 56f 52f
3:06am 14 16 mph 1022.3mb 56f 52f
3:00am 15 18 mph 1022.3mb 56f 52f
2:54am 17 18 mph 1022.4mb 56f 52f
2:48am 17 20 mph 1022.4mb 56f 52f
2:36am 17 20 mph 1022.4mb 56f 53f
2:30am 16 18 mph 1022.5mb 56f 52f
2:24am 14 16 mph 1022.5mb 56f 53f
2:18am 16 17 mph 1022.4mb 56f 53f
2:12am 16 20 mph 1022.5mb 56f 53f
2:06am 16 18 mph 1022.5mb 56f 52f
2:00am 17 18 mph 1022.5mb 56f 52f
1:54am 18 24 mph 1022.4mb 56f 53f
1:48am 22 23 mph 1022.5mb 56f 53f
1:36am 20 22 mph 1022.5mb 56f 53f
1:30am 20 22 mph 1022.5mb 56f 53f
1:24am 16 20 mph 1022.5mb 56f 53f
1:18am 18 21 mph 1022.5mb 56f 53f
1:12am 13 17 mph 1022.5mb 57f 53f
1:06am 15 17 mph 1022.5mb 57f 53f
1:00am 17 20 mph 1022.6mb 57f 53f
12:54am 17 18 mph 1022.6mb 57f 53f
12:48am 15 18 mph 1022.6mb 57f 53f
12:36am 18 21 mph 1022.7mb 56f 53f
12:30am 18 21 mph 1022.7mb 56f 52f
12:24am 16 20 mph 1022.8mb 56f 52f
12:18am 17 21 mph 1022.8mb 56f 52f
12:12am 16 20 mph 1022.8mb 56f 52f
12:06am 18 22 mph 1022.9mb 56f 53f
12:00am 15 17 mph 1023mb 56f 53f
Thu 05/26 11:54pm 15 18 mph 1023mb 57f 53f
11:48pm 15 18 mph 1023mb 57f 53f
11:36pm 16 20 mph 1023mb 57f 53f
11:30pm 17 20 mph 1023mb 57f 53f
11:24pm 16 20 mph 1023mb 57f 53f
11:18pm 17 20 mph 1023mb 57f 53f
11:12pm 20 23 mph 1023.1mb 57f 53f
11:06pm 22 24 mph 1023.1mb 57f 53f
11:00pm 22 23 mph 1023.2mb 57f 53f
10:54pm 15 17 mph 1023.2mb 57f 53f
10:48pm 14 15 mph 1023.2mb 57f 53f
10:36pm 16 21 mph 1023.2mb 57f 53f
10:30pm 20 23 mph 1023.3mb 57f 53f
10:24pm 18 21 mph 1023.3mb 57f 53f
10:18pm 18 21 mph 1023.3mb 57f 53f
10:12pm 18 21 mph 1023.3mb 57f 53f
10:06pm 15 17 mph 1023.4mb 57f 53f
10:00pm 13 20 mph 1023.4mb 57f 53f
9:54pm 18 20 mph 1023.3mb 57f 53f
9:48pm 17 20 mph 1023.3mb 57f 53f
9:36pm 18 22 mph 1023.2mb 57f 53f
9:30pm 20 22 mph 1023.1mb 57f 53f
9:24pm 21 23 mph 1023.1mb 57f 53f
9:18pm 21 22 mph 1023.1mb 57f 52f
9:12pm 18 20 mph 1023.1mb 57f 52f
9:06pm 8 9 mph 1023.1mb 57f 52f
9:00pm 9 11 mph 1023.1mb 57f 52f
8:54pm 9 11 mph 1023.1mb 57f 52f
8:48pm 9 11 mph 1023.1mb 57f 52f
8:36pm 13 15 mph 1023.1mb 57f 53f
8:30pm 17 21 mph 1023.1mb 57f 53f
8:24pm 18 22 mph 1023.1mb 57f 53f
8:18pm 18 21 mph 1023.1mb 57f 53f
8:12pm 17 21 mph 1023.1mb 57f 53f
8:06pm 17 21 mph 1023.1mb 57f 53f
8:00pm 17 21 mph 1023.1mb 57f 53f
7:54pm 15 17 mph 1023.2mb 57f 53f
7:48pm 13 17 mph 1023.2mb 57f 53f
7:36pm  -  mph 1023.2mb - -
7:30pm  -  mph 1023.2mb - -
7:24pm  -  mph 1023.2mb - -
7:18pm  -  mph 1023.2mb - -
7:12pm  -  mph 1023.2mb - -
7:06pm  -  mph 1023.2mb - -
7:00pm  -  mph 1023.2mb - -
6:54pm  -  mph 1023.2mb - -
6:48pm  -  mph 1023.3mb - -
6:36pm 14 16 mph 1023.4mb 55f -
6:30pm 14 15 mph 1023.4mb 55f -
6:24pm 13 15 mph 1023.4mb 55f -
6:18pm 14 16 mph 1023.4mb 55f -
6:12pm 15 17 mph 1023.5mb 55f -
6:06pm 13 16 mph 1023.6mb 55f -
6:00pm 16 17 mph 1023.6mb 55f -
5:54pm 14 15 mph 1023.7mb 55f -
5:48pm 13 15 mph 1023.7mb 55f -
5:36pm 13 16 mph 1023.7mb 55f 53f
5:30pm 14 16 mph 1023.8mb 55f 53f
5:24pm 14 16 mph 1023.8mb 55f 53f
5:18pm 13 15 mph 1023.9mb 55f 52f
5:12pm 10 16 mph 1023.9mb 55f 52f
5:06pm 13 15 mph 1023.9mb 55f 52f
5:00pm 13
mph
1024mb 55f 51f
4:54pm 11 17 mph 1024mb 55f 51f
4:48pm 20 23 mph 1024mb 56f 51f
4:36pm 21 24 mph 1024mb - -
4:30pm 21 23 mph 1024mb - -
4:24pm 20 22 mph 1024mb - -
4:18pm 17 21 mph 1024mb - -
4:12pm 15 17 mph 1024.1mb - -
4:06pm 14 17 mph 1024.1mb - -
4:00pm 16 18 mph 1024.1mb - -
3:54pm 16 18 mph 1024mb - -
3:48pm 15 16 mph 1024mb - -
3:36pm  -  mph 1024.1mb 58f -
3:30pm  -  mph 1024.1mb 58f -
3:24pm  -  mph 1024.2mb 58f -
3:18pm  -  mph 1024.2mb 58f -
3:12pm  -  mph 1024.3mb 58f -
3:06pm  -  mph 1024.3mb 58f -
3:00pm  -  mph 1024.2mb 58f -
2:54pm  -  mph 1024.3mb 58f -
2:48pm  -  mph 1024.3mb 58f -
2:36pm 14 17 mph 1024.3mb 58f 53f
2:30pm 10 15 mph 1024.4mb 58f 53f
2:24pm 14 15 mph 1024.3mb 58f 53f
2:18pm 13 15 mph 1024.3mb 57f 53f
2:12pm 13 14 mph 1024.3mb 57f 52f
2:06pm 11 13 mph 1024.2mb 57f 52f
2:00pm 9 10 mph 1024.3mb 57f 51f
1:54pm 8 16 mph 1024.4mb 57f 52f
1:48pm 13 20 mph 1024.5mb 57f 52f
1:36pm 13 15 mph 1024.4mb 57f 53f
1:30pm 11 14 mph 1024.3mb 57f 53f
1:24pm 9 11 mph 1024.3mb 57f 52f
1:18pm 9 11 mph 1024.2mb 57f 52f
1:12pm 10 13 mph 1024.2mb 57f 52f
1:06pm 14 15 mph 1024.2mb 57f 52f
1:00pm 14 18 mph 1024.2mb 57f 53f
12:54pm 15 18 mph 1024.2mb 57f 52f
12:48pm 11 14 mph 1024.3mb 57f 52f
12:36pm 11 22 mph 1024.2mb 57f 52f
12:30pm 18 22 mph 1024.2mb 57f 53f
12:24pm 14 15 mph 1024.2mb 57f 53f
12:18pm 13 15 mph 1024.2mb 57f 53f
12:12pm 13 14 mph 1024.2mb 57f 52f
12:06pm 14 15 mph 1024.2mb 57f 52f
12:00pm 14 16 mph 1024.2mb 57f 52f
11:54am 15 20 mph 1024.2mb 57f 52f
11:48am 17 21 mph 1024.2mb 57f 52f
11:36am 15 21 mph 1024.2mb 57f 53f
11:30am 14 15 mph 1024.1mb 57f 54f
11:24am 8 11 mph 1024.1mb 57f 54f
11:18am 8 10 mph 1024.1mb 57f 53f
11:12am 6 9 mph 1024.1mb 58f 53f
11:06am 6 8 mph 1024mb 57f 53f
11:00am 6 9 mph 1024mb 57f 52f
10:54am 8 10 mph 1024mb 57f 52f
10:48am 10 13 mph 1024.1mb 57f 51f
10:36am 13 18 mph 1024.1mb 57f 51f
10:30am 17 18 mph 1024mb 57f 51f
10:24am 18 20 mph 1023.9mb 57f 51f
10:18am 17 20 mph 1024mb 57f 52f
10:12am 17 20 mph 1023.9mb 57f 52f
10:06am 20 21 mph 1023.9mb 57f 52f
10:00am 18 21 mph 1023.9mb 57f 52f
9:54am 18 21 mph 1023.9mb 57f 51f
9:48am 18 23 mph 1023.9mb 57f 51f
9:36am 20 24 mph 1023.8mb 57f 52f
9:30am 22 24 mph 1023.8mb 57f 52f
9:24am 23 25 mph 1023.8mb 57f 53f
9:18am 16 21 mph 1023.8mb 57f 53f
9:12am 17 21 mph 1023.7mb 57f 53f
9:06am 16 18 mph 1023.7mb 57f 53f
9:00am 14 17 mph 1023.7mb 57f 53f
8:54am 16
mph
1023.7mb 57f 53f
8:48am 14 16 mph 1023.7mb 57f 53f
8:36am 15 16 mph 1023.6mb 57f 53f
8:30am 15 18 mph 1023.6mb 57f 53f
8:24am 15 17 mph 1023.6mb 57f 53f
8:18am 14 17 mph 1023.6mb 57f 53f
8:12am 17 18 mph 1023.5mb 57f 53f
8:06am 15 18 mph 1023.5mb 57f 53f
8:00am 17 18 mph 1023.5mb 57f 53f
7:36am 16 18 mph 1023.6mb 57f 54f
7:30am 17 21 mph 1023.6mb 57f 53f
7:24am 18 20 mph 1023.5mb 57f 53f
7:18am 16 18 mph 1023.5mb 57f 53f
7:12am 17 18 mph 1023.5mb 57f 53f
7:06am 14 15 mph 1023.5mb 57f 53f
7:00am 11 14 mph 1023.5mb 57f 53f
6:54am 14 15 mph 1023.5mb 57f 53f
6:48am 14 16 mph 1023.5mb 57f 53f
6:36am 13 15 mph 1023.4mb 57f 53f
6:30am 14 16 mph 1023.4mb 57f 53f
6:24am 14 17 mph 1023.5mb 57f 53f
6:18am 14 17 mph 1023.5mb 57f 53f
6:12am 16 20 mph 1023.5mb 57f 53f
6:06am 14 16 mph 1023.5mb 57f 52f
6:00am 14 16 mph 1023.5mb 57f 52f
5:54am 14 16 mph 1023.5mb 57f 52f
5:48am 14 16 mph 1023.5mb 57f 52f
5:36am 13 17 mph 1023.4mb 56f 52f
5:30am 14 16 mph 1023.4mb 56f 52f